Time;durP1;ratioP1;P1;durP2;ratioP2;P2;SDS_P1;SDS_P2;PMS_P1;PMS_P2;Temp;Humidity;BMP_temperature;BMP_pressure;BME280_temperature;BME280_humidity;BME280_pressure;Samples;Min_cycle;Max_cycle;Signal;HPM_P1;HPM_P2
2023/08/13 00:01:58;;;;;;;5.22;3.30;;;24.50;88.50;;;;;;5051762;28;20064;-71
2023/08/13 00:04:24;;;;;;;5.93;3.58;;;24.50;88.70;;;;;;5052092;28;20056;-71
2023/08/13 00:06:49;;;;;;;4.82;3.50;;;24.40;88.80;;;;;;5052239;28;20025;-71
2023/08/13 00:09:15;;;;;;;5.85;3.42;;;24.40;88.60;;;;;;5051789;28;20037;-70
2023/08/13 00:11:41;;;;;;;5.30;3.95;;;24.40;88.60;;;;;;5052132;28;20094;-71
2023/08/13 00:14:07;;;;;;;6.22;3.45;;;24.40;88.70;;;;;;5052097;28;20036;-71
2023/08/13 00:16:32;;;;;;;5.13;3.35;;;24.40;88.80;;;;;;5052043;28;20542;-71
2023/08/13 00:18:58;;;;;;;6.85;3.38;;;24.30;88.90;;;;;;5052027;28;20061;-71
2023/08/13 00:21:24;;;;;;;7.68;3.47;;;24.30;89.00;;;;;;5051998;28;20023;-71
2023/08/13 00:23:50;;;;;;;6.15;3.65;;;24.30;89.00;;;;;;5052018;28;20029;-71
2023/08/13 00:26:16;;;;;;;6.78;3.58;;;24.30;89.10;;;;;;5051862;28;20009;-71
2023/08/13 00:28:42;;;;;;;5.93;3.42;;;24.20;89.20;;;;;;5051785;28;20059;-71
2023/08/13 00:31:07;;;;;;;8.27;3.33;;;24.20;89.30;;;;;;5051997;28;20021;-71
2023/08/13 00:33:33;;;;;;;7.32;4.15;;;24.20;89.50;;;;;;5051542;28;20056;-71
2023/08/13 00:35:59;;;;;;;5.38;3.72;;;24.20;89.50;;;;;;5052042;28;20057;-71
2023/08/13 00:38:25;;;;;;;8.13;3.40;;;24.20;89.60;;;;;;5055513;28;20025;-71
2023/08/13 00:40:50;;;;;;;6.13;3.67;;;24.20;89.80;;;;;;5055265;28;20021;-71
2023/08/13 00:43:16;;;;;;;5.38;3.58;;;24.20;89.80;;;;;;5055344;28;20083;-71
2023/08/13 00:45:42;;;;;;;6.30;3.08;;;24.10;89.70;;;;;;5055389;28;20120;-71
2023/08/13 00:48:09;;;;;;;8.93;3.50;;;24.10;89.70;;;;;;5037136;28;20029;-71
2023/08/13 00:50:36;;;;;;;6.45;3.40;;;24.10;89.70;;;;;;5055339;28;20024;-70
2023/08/13 00:53:04;;;;;;;5.30;3.20;;;24.10;89.70;;;;;;5055218;28;20414;-71
2023/08/13 00:55:30;;;;;;;4.88;3.22;;;24.10;89.70;;;;;;5054960;28;20021;-73
2023/08/13 00:57:56;;;;;;;5.22;3.60;;;24.00;89.90;;;;;;5053759;28;20104;-73
2023/08/13 01:00:22;;;;;;;5.35;3.30;;;24.00;90.00;;;;;;5052306;28;20108;-72
2023/08/13 01:02:48;;;;;;;5.07;3.42;;;24.00;90.00;;;;;;5052155;28;20029;-72
2023/08/13 01:05:14;;;;;;;5.03;3.85;;;24.00;90.00;;;;;;5053718;28;20021;-72
2023/08/13 01:08:13;;;;;;;5.05;3.40;;;24.00;89.90;;;;;;5054540;28;20475;-73
2023/08/13 01:10:43;;;;;;;8.18;3.55;;;24.00;89.80;;;;;;5002560;28;20407;-74
2023/08/13 01:13:10;;;;;;;6.90;3.58;;;23.90;89.90;;;;;;5054428;28;20467;-73
2023/08/13 01:15:42;;;;;;;5.90;3.78;;;23.90;89.90;;;;;;5054889;28;20028;-73
2023/08/13 01:18:09;;;;;;;6.15;3.30;;;23.90;90.00;;;;;;5054669;28;20053;-72
2023/08/13 01:20:37;;;;;;;6.65;4.13;;;23.80;90.10;;;;;;5054713;28;20021;-72
2023/08/13 01:23:04;;;;;;;5.18;3.60;;;23.80;90.10;;;;;;5054546;28;20017;-73
2023/08/13 01:25:32;;;;;;;10.55;3.88;;;23.70;90.10;;;;;;5036659;28;20395;-72
2023/08/13 01:28:22;;;;;;;6.25;3.58;;;23.70;90.20;;;;;;5036195;28;20426;-72
2023/08/13 01:30:52;;;;;;;5.07;3.80;;;23.60;90.20;;;;;;5054346;28;20079;-72
2023/08/13 01:33:27;;;;;;;5.65;3.90;;;23.60;90.30;;;;;;5053127;28;20492;-72
2023/08/13 01:35:56;;;;;;;6.60;3.50;;;23.60;90.40;;;;;;5053694;28;20052;-71
2023/08/13 01:38:24;;;;;;;5.60;3.90;;;23.50;90.40;;;;;;5036487;28;20028;-72
2023/08/13 01:40:50;;;;;;;10.57;3.80;;;23.50;90.40;;;;;;5054109;28;20040;-72
2023/08/13 01:43:16;;;;;;;5.63;4.20;;;23.50;90.60;;;;;;5054483;28;20502;-71
2023/08/13 01:45:42;;;;;;;6.82;3.85;;;23.40;90.70;;;;;;5054329;28;20020;-71
2023/08/13 01:48:08;;;;;;;10.00;4.03;;;23.50;90.80;;;;;;5053299;28;20048;-72
2023/08/13 01:50:37;;;;;;;10.20;3.97;;;23.40;90.70;;;;;;5054007;28;20203;-72
2023/08/13 01:53:03;;;;;;;5.43;3.70;;;23.40;90.70;;;;;;5052775;28;20029;-73
2023/08/13 01:55:28;;;;;;;7.03;3.85;;;23.40;90.70;;;;;;5054181;28;20024;-72
2023/08/13 01:57:54;;;;;;;9.80;3.60;;;23.40;90.80;;;;;;5054043;28;20071;-72
2023/08/13 02:00:20;;;;;;;10.77;4.25;;;23.40;90.80;;;;;;5053910;28;20021;-72
2023/08/13 02:02:46;;;;;;;5.55;3.85;;;23.30;90.80;;;;;;5053938;28;20017;-71
2023/08/13 02:05:11;;;;;;;7.00;3.88;;;23.40;90.90;;;;;;5053776;28;20029;-72
2023/08/13 02:07:37;;;;;;;6.38;4.03;;;23.30;90.90;;;;;;5053951;28;20033;-72
2023/08/13 02:10:03;;;;;;;6.88;4.00;;;23.30;90.90;;;;;;5053497;28;20044;-72
2023/08/13 02:12:29;;;;;;;7.25;3.65;;;23.30;90.90;;;;;;5053326;28;20549;-71
2023/08/13 02:14:55;;;;;;;11.65;3.95;;;23.30;90.90;;;;;;5053872;28;20028;-71
2023/08/13 02:17:21;;;;;;;4.68;3.70;;;23.30;91.00;;;;;;5053608;28;20025;-72
2023/08/13 02:19:47;;;;;;;8.30;4.00;;;23.20;91.10;;;;;;5053228;28;20104;-71
2023/08/13 02:22:12;;;;;;;5.63;3.67;;;23.20;91.10;;;;;;5053272;28;20418;-72
2023/08/13 02:24:38;;;;;;;5.35;3.78;;;23.20;91.10;;;;;;5053325;28;20021;-71
2023/08/13 02:27:04;;;;;;;7.35;4.13;;;23.20;91.20;;;;;;5053401;28;20422;-72
2023/08/13 02:29:30;;;;;;;5.65;3.78;;;23.20;91.20;;;;;;5053248;28;20885;-72
2023/08/13 02:31:56;;;;;;;6.45;3.92;;;23.20;91.20;;;;;;5053412;28;20029;-72
2023/08/13 02:34:24;;;;;;;6.55;3.90;;;23.20;91.20;;;;;;5053055;28;20017;-72
2023/08/13 02:36:51;;;;;;;5.07;4.05;;;23.20;91.50;;;;;;5052829;28;20060;-71
2023/08/13 02:39:17;;;;;;;8.38;4.15;;;23.10;91.10;;;;;;5052804;28;20048;-71
2023/08/13 02:41:43;;;;;;;4.85;3.70;;;23.20;91.20;;;;;;5053063;28;20025;-71
2023/08/13 02:44:09;;;;;;;6.10;3.80;;;23.10;91.20;;;;;;5053288;28;20071;-72
2023/08/13 02:46:34;;;;;;;8.68;4.13;;;23.10;91.20;;;;;;5053095;28;20031;-72
2023/08/13 02:49:00;;;;;;;6.78;4.13;;;23.10;91.20;;;;;;5052857;28;20040;-71
2023/08/13 02:51:26;;;;;;;4.80;3.60;;;23.10;91.20;;;;;;5052904;28;20025;-71
2023/08/13 02:53:52;;;;;;;5.70;3.95;;;23.10;91.30;;;;;;5052912;28;20025;-71
2023/08/13 02:56:19;;;;;;;8.25;4.53;;;23.00;91.30;;;;;;5052785;28;20025;-72
2023/08/13 02:58:45;;;;;;;7.03;4.25;;;23.10;91.40;;;;;;5052539;28;20021;-71
2023/08/13 03:01:11;;;;;;;5.57;3.83;;;23.00;91.30;;;;;;5052671;28;20028;-72
2023/08/13 03:03:37;;;;;;;4.90;3.40;;;23.00;91.30;;;;;;5052525;28;20045;-71
2023/08/13 03:06:03;;;;;;;8.73;4.15;;;23.00;91.20;;;;;;5052326;28;20481;-71
2023/08/13 03:08:29;;;;;;;6.28;4.00;;;23.00;91.30;;;;;;5052357;28;20021;-71
2023/08/13 03:10:55;;;;;;;7.50;4.20;;;22.90;91.30;;;;;;5052839;28;20029;-72
2023/08/13 03:13:21;;;;;;;7.30;4.20;;;22.90;91.30;;;;;;5052593;28;20032;-72
2023/08/13 03:15:47;;;;;;;3.88;3.40;;;22.80;91.30;;;;;;5034645;28;20118;-71
2023/08/13 03:18:13;;;;;;;5.22;3.60;;;22.90;91.40;;;;;;5052402;28;20029;-71
2023/08/13 03:20:39;;;;;;;5.45;3.58;;;22.80;91.50;;;;;;5052626;28;20482;-71
2023/08/13 03:23:05;;;;;;;7.30;4.00;;;22.80;91.50;;;;;;5052582;28;20037;-72
2023/08/13 03:25:31;;;;;;;9.25;4.30;;;22.80;91.60;;;;;;5052590;28;20021;-72
2023/08/13 03:27:56;;;;;;;6.07;3.92;;;22.80;91.60;;;;;;5052819;28;20463;-71
2023/08/13 03:30:22;;;;;;;6.07;3.67;;;22.70;91.50;;;;;;5052310;28;20035;-71
2023/08/13 03:32:48;;;;;;;6.53;3.92;;;22.70;91.60;;;;;;5051903;28;20029;-72
2023/08/13 03:35:14;;;;;;;5.20;4.10;;;22.70;91.60;;;;;;5052382;28;20127;-71
2023/08/13 03:37:39;;;;;;;6.47;3.85;;;22.70;91.70;;;;;;5052405;28;20021;-71
2023/08/13 03:40:06;;;;;;;5.63;3.92;;;22.70;91.70;;;;;;5052340;28;20103;-71
2023/08/13 03:42:32;;;;;;;10.18;4.30;;;22.70;91.70;;;;;;5052238;28;20017;-71
2023/08/13 03:44:59;;;;;;;4.80;4.20;;;22.60;91.70;;;;;;5052516;28;20364;-73
2023/08/13 03:47:25;;;;;;;5.30;3.70;;;22.60;91.70;;;;;;5052225;28;20017;-71
2023/08/13 03:49:50;;;;;;;6.28;4.15;;;22.60;91.80;;;;;;5052263;28;20060;-71
2023/08/13 03:52:16;;;;;;;6.38;3.75;;;22.60;91.90;;;;;;5052253;28;20147;-71
2023/08/13 03:54:42;;;;;;;4.03;3.58;;;22.60;91.80;;;;;;5052140;28;20029;-70
2023/08/13 03:57:07;;;;;;;6.13;3.80;;;22.60;91.80;;;;;;5051693;28;20050;-71
2023/08/13 03:59:33;;;;;;;5.75;3.72;;;22.50;91.70;;;;;;5051650;28;20037;-71
2023/08/13 04:01:59;;;;;;;8.38;3.88;;;22.50;91.70;;;;;;5052317;28;20025;-69
2023/08/13 04:04:25;;;;;;;6.22;4.20;;;22.50;91.70;;;;;;5051910;28;20025;-71
2023/08/13 04:06:51;;;;;;;8.43;3.95;;;22.50;91.60;;;;;;5051919;28;20079;-71
2023/08/13 04:09:18;;;;;;;6.75;4.07;;;22.50;91.90;;;;;;5051840;28;20036;-71
2023/08/13 04:11:44;;;;;;;8.63;3.67;;;22.50;91.70;;;;;;5053462;28;20052;-71
2023/08/13 04:14:10;;;;;;;4.65;3.45;;;22.50;91.80;;;;;;5056135;28;20048;-70
2023/08/13 04:16:36;;;;;;;7.03;3.50;;;22.40;91.80;;;;;;5055985;28;20109;-71
2023/08/13 04:19:02;;;;;;;8.52;3.53;;;22.40;91.80;;;;;;5055997;28;20096;-70
2023/08/13 04:21:27;;;;;;;5.90;3.65;;;22.40;92.10;;;;;;5055848;28;20428;-71
2023/08/13 04:23:57;;;;;;;6.05;3.33;;;22.40;91.90;;;;;;5055413;28;20025;-72
2023/08/13 04:26:24;;;;;;;7.72;3.70;;;22.40;92.00;;;;;;5055566;28;20075;-72
2023/08/13 04:28:50;;;;;;;7.70;3.63;;;22.40;91.90;;;;;;5055357;28;20505;-71
2023/08/13 04:31:17;;;;;;;6.28;3.55;;;22.40;91.80;;;;;;5055381;28;20021;-71
2023/08/13 04:33:42;;;;;;;6.72;4.10;;;22.40;91.80;;;;;;5055072;28;20398;-71
2023/08/13 04:36:08;;;;;;;6.00;4.07;;;22.30;91.70;;;;;;5055468;28;20052;-71
2023/08/13 04:38:34;;;;;;;5.45;3.63;;;22.30;91.80;;;;;;5055519;28;20025;-72
2023/08/13 04:41:02;;;;;;;7.18;3.78;;;22.30;91.90;;;;;;5055581;28;20039;-71
2023/08/13 04:43:28;;;;;;;5.55;3.67;;;22.30;91.90;;;;;;5055304;28;20578;-71
2023/08/13 04:45:54;;;;;;;7.65;4.10;;;22.30;91.90;;;;;;5055222;28;20092;-72
2023/08/13 04:48:46;;;;;;;6.75;3.58;;;22.30;92.00;;;;;;5055485;28;20029;-74
2023/08/13 04:51:12;;;;;;;;;;;22.30;92.10;;;;;;5055451;28;20479;-72
2023/08/13 04:53:38;;;;;;;8.90;4.15;;;22.30;92.10;;;;;;5054804;28;19991;-72
2023/08/13 04:56:06;;;;;;;8.27;3.58;;;22.30;92.10;;;;;;5054813;28;20360;-72
2023/08/13 04:58:32;;;;;;;6.18;3.83;;;22.30;92.20;;;;;;5054685;28;20063;-73
2023/08/13 05:00:58;;;;;;;6.03;3.45;;;22.30;92.50;;;;;;5054681;28;20360;-72
2023/08/13 05:03:24;;;;;;;7.38;4.28;;;22.30;92.20;;;;;;5054639;28;20032;-73
2023/08/13 05:05:49;;;;;;;6.68;4.00;;;22.30;92.30;;;;;;5055080;28;20035;-72
2023/08/13 05:08:15;;;;;;;4.18;3.78;;;22.30;92.40;;;;;;5054865;28;20021;-74
2023/08/13 05:10:41;;;;;;;4.78;4.03;;;22.40;92.50;;;;;;5054711;28;20080;-72
2023/08/13 05:13:07;;;;;;;5.75;4.18;;;22.40;92.50;;;;;;5055040;28;20063;-70
2023/08/13 05:15:32;;;;;;;9.23;3.72;;;22.40;92.60;;;;;;5037094;28;20052;-74
2023/08/13 05:17:59;;;;;;;6.72;3.72;;;22.40;92.50;;;;;;5054569;28;20025;-72
2023/08/13 05:20:25;;;;;;;7.43;3.40;;;22.50;92.50;;;;;;5054604;28;20070;-72
2023/08/13 05:22:50;;;;;;;5.18;3.70;;;22.50;92.50;;;;;;5054190;28;20016;-72
2023/08/13 05:25:16;;;;;;;6.18;3.50;;;22.50;92.60;;;;;;5054056;28;20060;-73
2023/08/13 05:27:42;;;;;;;5.60;3.38;;;22.50;92.60;;;;;;5054476;28;20728;-72
2023/08/13 05:30:08;;;;;;;7.75;3.65;;;22.50;92.50;;;;;;5054626;28;20028;-73
2023/08/13 05:32:34;;;;;;;10.63;4.00;;;22.50;92.50;;;;;;5054523;28;20029;-72
2023/08/13 05:35:00;;;;;;;5.88;3.70;;;22.60;92.50;;;;;;5054184;28;20044;-72
2023/08/13 05:37:25;;;;;;;6.72;3.30;;;22.60;92.50;;;;;;5054010;28;20028;-71
2023/08/13 05:39:52;;;;;;;6.07;4.00;;;22.70;92.40;;;;;;5036467;28;20036;-72
2023/08/13 05:42:19;;;;;;;4.00;3.58;;;22.70;92.50;;;;;;5054247;28;20017;-72
2023/08/13 05:44:44;;;;;;;4.18;3.53;;;22.70;92.60;;;;;;5054230;28;20506;-71
2023/08/13 05:47:10;;;;;;;6.85;3.78;;;22.70;92.60;;;;;;5054417;28;20100;-70
2023/08/13 05:49:36;;;;;;;5.40;3.63;;;22.80;92.70;;;;;;5054284;28;20039;-73
2023/08/13 05:52:02;;;;;;;8.13;4.03;;;22.80;92.60;;;;;;5054122;28;20020;-71
2023/08/13 05:54:28;;;;;;;7.28;3.70;;;22.80;92.60;;;;;;5054307;28;20025;-72
2023/08/13 05:56:54;;;;;;;5.30;3.40;;;22.80;92.60;;;;;;5053645;28;20025;-72
2023/08/13 05:59:20;;;;;;;3.80;3.10;;;22.90;92.90;;;;;;5035879;28;20037;-71
2023/08/13 06:01:46;;;;;;;7.00;3.58;;;22.90;92.60;;;;;;5053715;28;20108;-71
2023/08/13 06:04:12;;;;;;;5.32;3.35;;;23.00;92.60;;;;;;5053863;28;20443;-70
2023/08/13 06:06:38;;;;;;;5.13;3.70;;;23.00;92.60;;;;;;5053932;28;20112;-71
2023/08/13 06:09:05;;;;;;;4.78;3.35;;;23.10;92.40;;;;;;5053650;28;20487;-70
2023/08/13 06:11:31;;;;;;;8.73;4.13;;;23.10;92.30;;;;;;5053695;28;20017;-70
2023/08/13 06:13:57;;;;;;;3.72;3.30;;;23.10;92.30;;;;;;5053863;28;20483;-71
2023/08/13 06:16:23;;;;;;;4.18;3.30;;;23.20;92.30;;;;;;5053195;28;20025;-71
2023/08/13 06:18:49;;;;;;;5.72;3.30;;;23.20;92.30;;;;;;5053517;28;20032;-75
2023/08/13 06:21:14;;;;;;;3.63;3.20;;;23.30;92.20;;;;;;5053658;28;20048;-70
2023/08/13 06:23:40;;;;;;;6.32;3.65;;;23.30;92.20;;;;;;5053614;28;20029;-71
2023/08/13 06:26:09;;;;;;;3.42;3.10;;;23.40;92.30;;;;;;5054028;28;20028;-71
2023/08/13 06:28:35;;;;;;;4.15;3.20;;;23.40;92.30;;;;;;5053648;28;20482;-70
2023/08/13 06:31:02;;;;;;;5.85;3.40;;;23.40;92.30;;;;;;5053073;28;20029;-70
2023/08/13 06:33:28;;;;;;;5.68;3.40;;;23.50;92.40;;;;;;5053341;28;20016;-71
2023/08/13 06:35:53;;;;;;;6.05;3.35;;;23.60;92.50;;;;;;5052675;28;20071;-72
2023/08/13 06:38:19;;;;;;;5.78;3.05;;;23.60;92.00;;;;;;5053134;28;20059;-73
2023/08/13 06:40:45;;;;;;;6.00;3.47;;;23.60;91.90;;;;;;5053221;28;20075;-72
2023/08/13 06:43:11;;;;;;;4.88;3.53;;;23.70;91.80;;;;;;5053616;28;20024;-72
2023/08/13 06:45:37;;;;;;;4.30;3.20;;;23.70;92.00;;;;;;5053379;28;20021;-71
2023/08/13 06:48:04;;;;;;;4.40;2.85;;;23.80;91.80;;;;;;5034851;28;20025;-72
2023/08/13 06:50:30;;;;;;;4.68;2.95;;;23.80;91.90;;;;;;5051747;28;20043;-72
2023/08/13 06:52:57;;;;;;;3.90;2.95;;;23.90;91.80;;;;;;5032766;28;20028;-71
2023/08/13 06:55:23;;;;;;;5.50;3.13;;;23.90;91.60;;;;;;5051194;28;20028;-72
2023/08/13 06:57:49;;;;;;;4.88;2.90;;;24.00;91.40;;;;;;5050797;28;20104;-71
2023/08/13 07:00:16;;;;;;;6.88;2.90;;;24.00;91.30;;;;;;5032924;28;20435;-72
2023/08/13 07:02:41;;;;;;;5.50;3.05;;;24.10;91.10;;;;;;5051152;28;20013;-71
2023/08/13 07:05:11;;;;;;;5.15;3.60;;;24.10;91.00;;;;;;5051465;28;20098;-71
2023/08/13 07:07:36;;;;;;;4.22;2.97;;;24.20;90.80;;;;;;5052548;28;20078;-72
2023/08/13 07:10:04;;;;;;;6.07;2.90;;;24.20;90.90;;;;;;5052267;28;20715;-72
2023/08/13 07:12:29;;;;;;;7.28;3.25;;;24.30;90.80;;;;;;5052871;28;20052;-72
2023/08/13 07:14:55;;;;;;;5.78;2.95;;;24.30;90.70;;;;;;5052957;28;20131;-72
2023/08/13 07:17:21;;;;;;;5.97;2.40;;;24.30;90.60;;;;;;5052899;28;20025;-73
2023/08/13 07:19:49;;;;;;;3.67;2.85;;;24.40;90.60;;;;;;5052485;28;20029;-72
2023/08/13 07:22:14;;;;;;;5.63;2.85;;;24.40;90.50;;;;;;5052916;28;20096;-72
2023/08/13 07:24:40;;;;;;;4.53;2.28;;;24.50;90.30;;;;;;5053037;28;20029;-73
2023/08/13 07:27:06;;;;;;;5.10;2.80;;;24.50;90.10;;;;;;5052924;28;20024;-72
2023/08/13 07:29:31;;;;;;;4.53;2.70;;;24.60;89.50;;;;;;5052514;28;20036;-72
2023/08/13 07:31:57;;;;;;;4.00;2.88;;;24.60;88.80;;;;;;5034975;28;20467;-72
2023/08/13 07:34:23;;;;;;;3.40;2.65;;;24.60;88.50;;;;;;5052600;28;20021;-72
2023/08/13 07:36:49;;;;;;;2.90;2.60;;;24.60;88.00;;;;;;5052500;28;20041;-72
2023/08/13 07:39:16;;;;;;;3.13;2.83;;;24.70;87.80;;;;;;5052553;28;20025;-72
2023/08/13 07:41:43;;;;;;;5.05;2.70;;;24.70;87.70;;;;;;5052755;28;20021;-72
2023/08/13 07:44:08;;;;;;;4.85;2.70;;;24.70;87.80;;;;;;5052717;28;20098;-72
2023/08/13 07:46:34;;;;;;;3.70;2.88;;;24.70;87.90;;;;;;5053665;28;20021;-72
2023/08/13 07:49:00;;;;;;;5.32;3.00;;;24.80;88.10;;;;;;5056279;28;20041;-72
2023/08/13 07:51:26;;;;;;;4.13;2.72;;;24.80;88.20;;;;;;5056972;28;20022;-72
2023/08/13 07:53:51;;;;;;;7.38;2.80;;;24.90;87.90;;;;;;5056697;28;20025;-72
2023/08/13 07:56:17;;;;;;;4.38;2.67;;;24.90;87.80;;;;;;5056264;28;20028;-71
2023/08/13 07:58:43;;;;;;;7.88;2.83;;;24.90;88.20;;;;;;5056267;28;20025;-71
2023/08/13 08:01:09;;;;;;;3.28;2.67;;;25.00;88.50;;;;;;5056548;28;20048;-71
2023/08/13 08:03:34;;;;;;;30.13;7.05;;;25.10;88.80;;;;;;5056283;28;20029;-71
2023/08/13 08:06:00;;;;;;;3.50;2.83;;;25.10;88.90;;;;;;5056139;28;20100;-71
2023/08/13 08:08:26;;;;;;;3.70;2.63;;;25.20;88.70;;;;;;5056013;28;20040;-72
2023/08/13 08:10:52;;;;;;;4.22;3.00;;;25.30;88.80;;;;;;5038399;28;20029;-72
2023/08/13 08:13:17;;;;;;;6.15;2.85;;;25.30;88.50;;;;;;5056334;28;20067;-72
2023/08/13 08:15:43;;;;;;;4.95;2.80;;;25.30;88.40;;;;;;5056369;28;20075;-72
2023/08/13 08:18:09;;;;;;;6.45;2.55;;;25.40;88.70;;;;;;5055978;28;20025;-72
2023/08/13 08:20:34;;;;;;;4.97;2.70;;;25.50;88.50;;;;;;5056236;28;20037;-72
2023/08/13 08:23:00;;;;;;;4.07;2.80;;;25.50;88.80;;;;;;5056164;28;20045;-72
2023/08/13 08:25:26;;;;;;;4.63;2.80;;;25.60;88.60;;;;;;5056235;28;20104;-72
2023/08/13 08:27:52;;;;;;;3.08;2.65;;;25.70;88.30;;;;;;5055987;28;20017;-71
2023/08/13 08:30:18;;;;;;;4.72;2.67;;;25.70;88.10;;;;;;5055866;28;20036;-72
2023/08/13 08:32:43;;;;;;;5.57;2.60;;;25.80;88.20;;;;;;5056080;28;20018;-71
2023/08/13 08:35:09;;;;;;;3.47;2.47;;;25.80;88.00;;;;;;5055992;28;20037;-72
2023/08/13 08:37:35;;;;;;;5.38;3.20;;;25.90;87.20;;;;;;5056034;28;20482;-72
2023/08/13 08:40:03;;;;;;;5.82;2.97;;;25.90;87.70;;;;;;5055421;28;20040;-72
2023/08/13 08:42:30;;;;;;;3.92;2.92;;;25.90;87.70;;;;;;5055710;28;20021;-72
2023/08/13 08:44:59;;;;;;;5.35;3.10;;;26.00;87.80;;;;;;5055742;28;20029;-72
2023/08/13 08:47:26;;;;;;;5.25;3.22;;;26.00;87.50;;;;;;5055524;28;20098;-72
2023/08/13 08:49:55;;;;;;;9.00;4.85;;;26.00;86.60;;;;;;5055710;28;20037;-72
2023/08/13 08:52:21;;;;;;;5.13;3.20;;;26.10;86.50;;;;;;5037959;28;20017;-72
2023/08/13 08:54:48;;;;;;;5.88;3.15;;;26.10;86.30;;;;;;5055651;28;20035;-72
2023/08/13 08:57:15;;;;;;;3.80;3.03;;;26.10;86.50;;;;;;5054706;28;20017;-72
2023/08/13 08:59:41;;;;;;;5.40;3.25;;;26.20;86.80;;;;;;5055081;28;20029;-72
2023/08/13 09:02:08;;;;;;;2.92;2.63;;;26.30;86.50;;;;;;5037420;28;20108;-71
2023/08/13 09:04:34;;;;;;;8.82;3.00;;;26.30;86.20;;;;;;5055304;28;20035;-71
2023/08/13 09:07:03;;;;;;;4.70;2.63;;;26.30;86.50;;;;;;5055142;28;20039;-71
2023/08/13 09:09:30;;;;;;;4.35;2.95;;;26.40;86.80;;;;;;5055260;28;20068;-72
2023/08/13 09:11:57;;;;;;;3.55;2.83;;;26.40;86.70;;;;;;5055334;28;20020;-71
2023/08/13 09:14:23;;;;;;;6.13;2.70;;;26.50;86.50;;;;;;5055008;28;20033;-71
2023/08/13 09:16:51;;;;;;;3.88;2.92;;;26.50;85.20;;;;;;5054992;28;20017;-72
2023/08/13 09:19:17;;;;;;;7.15;2.58;;;26.60;85.30;;;;;;5055139;28;20479;-72
2023/08/13 09:21:51;;;;;;;5.95;2.85;;;26.60;85.90;;;;;;5054888;28;20032;-71
2023/08/13 09:24:17;;;;;;;4.65;2.63;;;26.60;86.00;;;;;;5054807;28;20048;-72
2023/08/13 09:26:44;;;;;;;4.93;2.65;;;26.70;85.20;;;;;;5055053;28;20108;-70
2023/08/13 09:29:09;;;;;;;4.45;2.75;;;26.70;84.20;;;;;;5054562;28;20509;-71
2023/08/13 09:31:36;;;;;;;2.90;2.38;;;26.70;84.30;;;;;;5054865;28;20017;-71
2023/08/13 09:34:02;;;;;;;4.18;2.60;;;26.80;83.80;;;;;;5054904;28;20082;-71
2023/08/13 09:36:28;;;;;;;5.13;3.00;;;26.80;82.80;;;;;;5054577;28;20044;-71
2023/08/13 09:38:55;;;;;;;7.07;2.53;;;26.80;82.70;;;;;;5054717;28;20075;-71
2023/08/13 09:41:21;;;;;;;4.05;2.70;;;26.90;82.80;;;;;;5054535;28;20479;-71
2023/08/13 09:43:48;;;;;;;4.25;2.65;;;27.00;82.90;;;;;;5054548;28;20025;-71
2023/08/13 09:46:19;;;;;;;4.32;2.70;;;27.00;82.70;;;;;;5054653;28;20479;-71
2023/08/13 09:48:47;;;;;;;4.05;2.30;;;27.10;81.30;;;;;;5054531;28;20017;-72
2023/08/13 09:51:14;;;;;;;5.05;2.58;;;27.10;82.00;;;;;;5054361;28;20029;-72
2023/08/13 09:53:50;;;;;;;6.15;2.40;;;27.10;82.00;;;;;;5054691;28;20422;-71
2023/08/13 09:56:19;;;;;;;2.75;2.35;;;27.10;82.10;;;;;;5036578;28;20505;-72
2023/08/13 09:58:44;;;;;;;4.18;2.30;;;27.20;81.50;;;;;;5054819;28;20056;-72
2023/08/13 10:01:10;;;;;;;4.93;1.98;;;27.30;79.90;;;;;;5054473;28;20033;-72
2023/08/13 10:03:38;;;;;;;3.72;2.42;;;27.30;79.60;;;;;;5054037;28;20025;-71
2023/08/13 10:06:04;;;;;;;6.25;2.40;;;27.40;79.80;;;;;;5054367;28;20526;-72
2023/08/13 10:08:30;;;;;;;5.22;2.65;;;27.40;80.80;;;;;;5053712;28;20021;-73
2023/08/13 10:10:56;;;;;;;3.38;2.28;;;27.50;81.30;;;;;;5053832;28;20032;-71
2023/08/13 10:13:21;;;;;;;6.53;2.15;;;27.50;79.80;;;;;;5054018;28;20025;-72
2023/08/13 10:15:48;;;;;;;5.20;2.28;;;27.50;79.00;;;;;;5053894;28;20040;-72
2023/08/13 10:18:16;;;;;;;12.55;3.63;;;27.60;78.80;;;;;;5053974;28;20025;-72
2023/08/13 10:20:46;;;;;;;4.80;2.40;;;27.60;79.10;;;;;;5053982;28;20048;-73
2023/08/13 10:23:12;;;;;;;3.25;2.30;;;27.70;79.60;;;;;;5053847;28;20074;-73
2023/08/13 10:25:39;;;;;;;4.57;2.53;;;27.70;80.00;;;;;;5053549;28;20028;-73
2023/08/13 10:28:21;;;;;;;7.35;3.20;;;27.80;80.10;;;;;;5053489;28;20482;-73
2023/08/13 10:30:47;;;;;;;3.58;2.67;;;27.80;79.70;;;;;;5053484;28;20043;-72
2023/08/13 10:33:14;;;;;;;3.33;2.42;;;27.80;80.10;;;;;;5053439;28;20497;-72
2023/08/13 10:35:42;;;;;;;5.68;2.50;;;27.90;79.20;;;;;;5053374;28;20132;-73
2023/08/13 10:38:08;;;;;;;2.95;2.42;;;27.90;79.60;;;;;;5053531;28;20102;-72
2023/08/13 10:40:35;;;;;;;6.70;2.47;;;28.00;79.40;;;;;;5053133;28;20087;-73
2023/08/13 10:43:03;;;;;;;6.00;2.40;;;28.10;78.70;;;;;;5053298;28;20052;-72
2023/08/13 10:45:36;;;;;;;4.18;2.40;;;28.10;78.70;;;;;;5053367;28;20029;-73
2023/08/13 10:48:03;;;;;;;3.03;2.13;;;28.20;78.60;;;;;;5053471;28;20048;-73
2023/08/13 10:50:36;;;;;;;3.95;2.40;;;28.20;78.90;;;;;;5053217;28;20037;-72
2023/08/13 10:53:12;;;;;;;8.05;2.20;;;28.20;78.40;;;;;;5053514;28;20025;-72
2023/08/13 10:55:39;;;;;;;4.75;2.17;;;28.30;79.00;;;;;;5053357;28;20029;-72
2023/08/13 10:58:06;;;;;;;3.80;2.50;;;28.30;79.70;;;;;;5051837;28;20025;-73
2023/08/13 11:00:41;;;;;;;4.28;2.30;;;28.40;80.60;;;;;;5050394;28;20035;-72
2023/08/13 11:03:32;;;;;;;4.13;2.50;;;28.40;80.40;;;;;;5049625;28;20021;-72
2023/08/13 11:05:58;;;;;;;4.20;2.55;;;28.50;79.60;;;;;;5052037;28;20110;-72
2023/08/13 11:08:25;;;;;;;4.45;2.33;;;28.50;79.20;;;;;;5053253;28;20482;-72
2023/08/13 11:10:52;;;;;;;3.95;2.63;;;28.60;77.70;;;;;;5053101;28;20036;-72
2023/08/13 11:13:19;;;;;;;4.63;2.40;;;28.60;77.00;;;;;;5052560;28;20025;-72
2023/08/13 11:15:50;;;;;;;8.18;2.47;;;28.70;76.30;;;;;;5052986;28;20060;-72
2023/08/13 11:18:16;;;;;;;5.47;2.57;;;28.70;76.40;;;;;;5053413;28;20067;-72
2023/08/13 11:20:44;;;;;;;4.47;2.33;;;28.80;77.00;;;;;;5052751;28;20025;-73
2023/08/13 11:23:13;;;;;;;3.92;2.30;;;28.80;77.70;;;;;;5051677;28;20110;-72
2023/08/13 11:25:40;;;;;;;4.70;2.60;;;28.90;77.50;;;;;;5049946;28;20035;-72
2023/08/13 11:28:06;;;;;;;3.22;2.38;;;28.90;77.20;;;;;;5049626;28;20036;-72
2023/08/13 11:30:32;;;;;;;5.97;3.28;;;28.90;78.00;;;;;;5051801;28;20043;-73
2023/08/13 11:32:58;;;;;;;4.38;2.30;;;29.00;78.10;;;;;;5052675;28;20025;-72
2023/08/13 11:35:24;;;;;;;7.15;2.20;;;29.00;77.60;;;;;;5052402;28;20060;-73
2023/08/13 11:37:50;;;;;;;8.13;2.60;;;29.10;77.10;;;;;;5034656;28;20170;-72
2023/08/13 11:40:16;;;;;;;4.65;2.60;;;29.10;77.70;;;;;;5052711;28;20033;-72
2023/08/13 11:43:02;;;;;;;2.97;2.42;;;29.20;78.10;;;;;;5052847;28;20025;-73
2023/08/13 11:45:31;;;;;;;7.80;2.78;;;29.30;78.30;;;;;;5052373;28;20033;-73
2023/08/13 11:48:18;;;;;;;3.03;2.58;;;29.20;78.60;;;;;;5052687;28;20025;-72
2023/08/13 11:50:48;;;;;;;4.72;2.58;;;29.30;78.50;;;;;;5052452;28;20499;-73
2023/08/13 11:53:15;;;;;;;3.87;2.60;;;29.40;78.90;;;;;;5052109;28;20029;-72
2023/08/13 11:55:43;;;;;;;3.17;2.63;;;29.40;79.40;;;;;;5052542;28;20032;-72
2023/08/13 11:58:09;;;;;;;3.63;2.10;;;29.50;78.70;;;;;;5052542;28;20029;-72
2023/08/13 12:00:36;;;;;;;4.20;2.38;;;29.50;78.20;;;;;;5052329;28;20032;-73
2023/08/13 12:03:02;;;;;;;3.53;2.38;;;29.50;78.40;;;;;;5052287;28;20025;-73
2023/08/13 12:05:33;;;;;;;4.97;2.20;;;29.60;78.40;;;;;;5051896;28;20032;-72
2023/08/13 12:08:04;;;;;;;7.50;2.63;;;29.60;78.90;;;;;;5051884;28;20137;-72
2023/08/13 12:10:32;;;;;;;2.83;1.98;;;29.70;79.00;;;;;;5052279;28;20033;-73
2023/08/13 12:12:59;;;;;;;3.70;2.10;;;29.70;78.10;;;;;;5034446;28;20378;-74
2023/08/13 12:15:25;;;;;;;3.33;2.38;;;29.70;78.10;;;;;;5052265;28;20598;-72
2023/08/13 12:17:55;;;;;;;6.70;2.50;;;29.70;77.90;;;;;;5051329;28;20032;-73
2023/08/13 12:20:22;;;;;;;5.03;2.67;;;29.80;77.70;;;;;;5052164;28;20052;-75
2023/08/13 12:22:48;;;;;;;4.38;2.20;;;29.80;77.20;;;;;;5052183;28;20090;-72
2023/08/13 12:25:14;;;;;;;6.93;2.92;;;29.90;77.90;;;;;;5034181;28;20024;-72
2023/08/13 12:27:40;;;;;;;4.68;2.63;;;29.90;77.00;;;;;;5051927;28;20491;-72
2023/08/13 12:30:06;;;;;;;5.38;2.00;;;30.00;77.30;;;;;;5051972;28;20033;-72
2023/08/13 12:32:32;;;;;;;3.28;2.38;;;30.00;78.00;;;;;;5053123;28;20032;-72
2023/08/13 12:34:58;;;;;;;4.22;2.63;;;30.00;77.00;;;;;;5055783;28;20025;-73
2023/08/13 12:37:24;;;;;;;5.43;2.20;;;30.10;77.00;;;;;;5055924;28;20052;-72
2023/08/13 12:39:50;;;;;;;3.42;2.30;;;30.10;76.80;;;;;;5055631;28;20510;-72
2023/08/13 12:42:16;;;;;;;4.70;2.50;;;30.20;77.00;;;;;;5055458;28;20039;-71
2023/08/13 12:44:41;;;;;;;3.90;2.40;;;30.20;76.00;;;;;;5055265;28;20028;-72
2023/08/13 12:47:09;;;;;;;3.58;2.30;;;30.20;75.50;;;;;;5055688;28;20025;-71